Agstapha, Azerbaijan

11:11 AM AZT on December 20, 2014 (GMT +0400)
TBILISI/NOVO-AL | Change Station
CLOSE
Current Station
Airport
Location: TBILISI/NOVO-AL,
Elevation: 1624 ft
Nearby Weather Stations

Elev 1624 ft 41.67 °N, 44.95 °E | Updated 11 minutes ago

Clear
Clear
50 °F
Feels Like 50 °F
N
13
Wind Variable Wind from NW

Today
High -- | Low -- °F
--% Chance of Precip.
Yesterday
High -- | Low -- °F
Precip. -- in
8:19 AM 5:32 PM
Waning Crescent, 4% visible
Pressure 30.24 in
Visibility -9999.0 miles
Clouds
Dew Point 39 °F
Humidity 66%
Rainfall 0.00 in
Snow Depth Not available.
UV Not available.
Pollen Not available.
Air Quality Not available.
Flu Activity Not available.
METAR UGTB 200700Z 32011KT CAVOK 10/04 Q1024 R31L/CLRD80 NOSIG

More Conditions Fewer Conditions

Pressure 30.24 in
Visibility -9999.0 miles
Clouds
Dew Point 39 °F
Humidity 66%
Rainfall 0.00 in
Snow Depth Not available.
UV Not available.
Pollen Not available.
Air Quality Not available.
Flu Activity Not available.
METAR UGTB 200700Z 32011KT CAVOK 10/04 Q1024 R31L/CLRD80 NOSIG

More Conditions Fewer Conditions

10-Day Weather Forecast

Almanac

Astronomy

Dec. 20, 2014 Rise Set
Actual Time
Civil Twilight
Nautical Twilight
Astronomical Twilight
Moon
Length of Visible Light
Length of Day
Tomorrow will be .
, % of the Moon is Illuminated

Today's Extremes

Country Highs Country Lows

Community

WunderPhotos

Upload Photos

1,779,146 photos uploaded!

WunderBlogs® & News

Nearby

Air Quality

  Air Quality AQ Index Pollutant
Not available.

Snow Depth

Station Depth Elevation

Earthquake Activity

City Distance Mag. Time & Date
Minimum magnitude displayed is 2.5.

Coastal Water Temperatures

Place Temperature

Nearby Weather Stations